Olah — J8Y3743 — position and weather

sailwx.info

Track history (hours):
 
Tides and Currents Weather Stations Pressure Air Temp Water Temp Dewpoint Dewpoint Depression Visibility Wind Speed Wind Dir Waves Ship Positions

Olah

Last reported at 2014-Jul-31 23:31 UTC. Time now 2014-Jul-31 23:41 UTC.
Position N 43°32' E 007°02'.

Length 47 m; draft 3.5 m.

Type: Pleasure craft. MMSI: 375275000.

Date/timePositionNaut miles runAvg speedWind from/ knotsBaromVisibWave heightAir tempDewpointWater temp
2014-Jul-31 23:31N 43°32' E 007°02'0 0.0
2014-Jul-31 22:32N 43°32' E 007°02'0 0.0
2014-Jul-31 21:31N 43°32' E 007°02'0 0.0
2014-Jul-31 20:29N 43°32' E 007°02'0 0.0
2014-Jul-31 19:31N 43°32' E 007°02'0 0.3
2014-Jul-31 18:33N 43°32' E 007°01'1211.8
2014-Jul-31 17:33N 43°23' E 006°52'1312.5
2014-Jul-31 16:33N 43°14' E 006°40'0 0.0
2014-Jul-31 15:33N 43°14' E 006°40'0 0.0
2014-Jul-31 14:29N 43°14' E 006°40'0 0.0
2014-Jul-31 13:33N 43°14' E 006°40'0 0.0
2014-Jul-31 12:25N 43°14' E 006°40'0 0.0
2014-Jul-31 11:31N 43°14' E 006°40'0 0.0
2014-Jul-31 10:33N 43°14' E 006°40'3 3.4
2014-Jul-31 09:33N 43°16' E 006°37'0 0.0
2014-Jul-31 08:29N 43°16' E 006°37'0 0.0
2014-Jul-31 07:22N 43°16' E 006°37'0 0.0
2014-Jul-31 06:29N 43°16' E 006°37'0 0.0
2014-Jul-31 05:31N 43°16' E 006°37'0 0.0
2014-Jul-31 04:25N 43°16' E 006°37'0 0.0
2014-Jul-31 03:32N 43°16' E 006°37'0 0.0
2014-Jul-31 02:04N 43°16' E 006°37'0 0.0
2014-Jul-31 01:32N 43°16' E 006°37'0 0.0
2014-Jul-31 00:29N 43°16' E 006°37'0 0.0
2014-Jul-30 23:32N 43°16' E 006°37'0 0.0
2014-Jul-30 22:09N 43°16' E 006°37'0 0.1
2014-Jul-30 21:31N 43°16' E 006°37'0 0.0
2014-Jul-30 20:30N 43°16' E 006°37'0 0.0
2014-Jul-30 19:32N 43°16' E 006°37'0 0.0
2014-Jul-30 18:32N 43°16' E 006°37'0 0.0
2014-Jul-30 17:30N 43°16' E 006°37'0 0.0
2014-Jul-30 16:29N 43°16' E 006°37'0 0.0
2014-Jul-30 15:23N 43°16' E 006°37'4 4.5
2014-Jul-30 14:33N 43°18' E 006°42'1515.0
2014-Jul-30 13:33N 43°27' E 006°58'  
2014-Jul-26 04:29N 43°34' E 007°05'4 0.1
2014-Jul-24 15:33N 43°31' E 007°09'13 3.8
2014-Jul-24 12:07N 43°26' E 007°25'4 6.5
2014-Jul-24 11:31N 43°27' E 007°20'1313.5
2014-Jul-24 10:33N 43°34' E 007°05'0 0.0
2014-Jul-22 13:25N 43°34' E 007°05'  
Track history (hours):
 
Tides and Currents Weather Stations Pressure Air Temp Water Temp Dewpoint Dewpoint Depression Visibility Wind Speed Wind Dir Waves Ship Positions

Olah

Last reported at 2014-Jul-31 23:31 UTC. Time now 2014-Jul-31 23:41 UTC.
Position N 43°32' E 007°02'.

Length 47 m; draft 3.5 m.

Type: Pleasure craft. MMSI: 375275000.

Date/timePositionNaut miles runAvg speedWind from/ knotsBaromVisibWave heightAir tempDewpointWater temp
2014-Jul-31 23:31N 43°32' E 007°02'0 0.0
2014-Jul-31 22:32N 43°32' E 007°02'0 0.0
2014-Jul-31 21:31N 43°32' E 007°02'0 0.0
2014-Jul-31 20:29N 43°32' E 007°02'0 0.0
2014-Jul-31 19:31N 43°32' E 007°02'0 0.3
2014-Jul-31 18:33N 43°32' E 007°01'1211.8
2014-Jul-31 17:33N 43°23' E 006°52'1312.5
2014-Jul-31 16:33N 43°14' E 006°40'0 0.0
2014-Jul-31 15:33N 43°14' E 006°40'0 0.0
2014-Jul-31 14:29N 43°14' E 006°40'0 0.0
2014-Jul-31 13:33N 43°14' E 006°40'0 0.0
2014-Jul-31 12:25N 43°14' E 006°40'0 0.0
2014-Jul-31 11:31N 43°14' E 006°40'0 0.0
2014-Jul-31 10:33N 43°14' E 006°40'3 3.4
2014-Jul-31 09:33N 43°16' E 006°37'0 0.0
2014-Jul-31 08:29N 43°16' E 006°37'0 0.0
2014-Jul-31 07:22N 43°16' E 006°37'0 0.0
2014-Jul-31 06:29N 43°16' E 006°37'0 0.0
2014-Jul-31 05:31N 43°16' E 006°37'0 0.0
2014-Jul-31 04:25N 43°16' E 006°37'0 0.0
2014-Jul-31 03:32N 43°16' E 006°37'0 0.0
2014-Jul-31 02:04N 43°16' E 006°37'0 0.0
2014-Jul-31 01:32N 43°16' E 006°37'0 0.0
2014-Jul-31 00:29N 43°16' E 006°37'0 0.0
2014-Jul-30 23:32N 43°16' E 006°37'0 0.0
2014-Jul-30 22:09N 43°16' E 006°37'0 0.1
2014-Jul-30 21:31N 43°16' E 006°37'0 0.0
2014-Jul-30 20:30N 43°16' E 006°37'0 0.0
2014-Jul-30 19:32N 43°16' E 006°37'0 0.0
2014-Jul-30 18:32N 43°16' E 006°37'0 0.0
2014-Jul-30 17:30N 43°16' E 006°37'0 0.0
2014-Jul-30 16:29N 43°16' E 006°37'0 0.0
2014-Jul-30 15:23N 43°16' E 006°37'4 4.5
2014-Jul-30 14:33N 43°18' E 006°42'1515.0
2014-Jul-30 13:33N 43°27' E 006°58'  
2014-Jul-26 04:29N 43°34' E 007°05'4 0.1
2014-Jul-24 15:33N 43°31' E 007°09'13 3.8
2014-Jul-24 12:07N 43°26' E 007°25'4 6.5
2014-Jul-24 11:31N 43°27' E 007°20'1313.5
2014-Jul-24 10:33N 43°34' E 007°05'0 0.0
2014-Jul-22 13:25N 43°34' E 007°05'  

Dump ship's entire track history